createdAt,value
2017-09-28T00:01:36.634Z,23.98
2017-09-28T00:04:04.044Z,23.99
2017-09-28T00:06:31.518Z,23.96
2017-09-28T00:08:58.922Z,23.95
2017-09-28T00:11:26.327Z,23.96
2017-09-28T00:13:53.783Z,23.97
2017-09-28T00:16:21.195Z,23.96
2017-09-28T00:18:48.663Z,23.96
2017-09-28T00:21:16.127Z,23.95
2017-09-28T00:23:43.558Z,23.94
2017-09-28T00:26:11.062Z,23.97
2017-09-28T00:28:38.869Z,23.95
2017-09-28T00:31:06.289Z,23.94
2017-09-28T00:33:33.704Z,23.93
2017-09-28T00:36:01.245Z,23.93
2017-09-28T00:38:28.652Z,23.95
2017-09-28T00:40:56.068Z,23.95
2017-09-28T00:43:23.498Z,23.94
2017-09-28T00:45:50.917Z,23.94
2017-09-28T00:48:18.334Z,23.93
2017-09-28T00:50:45.858Z,23.93
2017-09-28T00:53:13.290Z,23.93
2017-09-28T00:55:40.703Z,23.91
2017-09-28T00:58:08.647Z,23.89
2017-09-28T01:00:36.086Z,23.90
2017-09-28T01:03:03.496Z,23.90
2017-09-28T01:05:31.334Z,23.90
2017-09-28T01:07:58.742Z,23.90
2017-09-28T01:10:26.164Z,23.88
2017-09-28T01:12:53.827Z,23.89
2017-09-28T01:15:21.245Z,23.90
2017-09-28T01:17:48.727Z,23.93
2017-09-28T01:20:17.173Z,23.92
2017-09-28T01:22:44.583Z,23.88
2017-09-28T01:25:11.997Z,23.88
2017-09-28T01:27:39.451Z,23.91
2017-09-28T01:30:07.956Z,23.91
2017-09-28T01:32:35.375Z,23.90
2017-09-28T01:35:02.951Z,23.89
2017-09-28T01:37:30.860Z,23.90
2017-09-28T01:39:58.282Z,23.90
2017-09-28T01:42:25.730Z,23.91
2017-09-28T01:44:53.131Z,23.89
2017-09-28T01:47:20.544Z,23.89
2017-09-28T01:49:48.326Z,23.90
2017-09-28T01:52:15.743Z,23.88
2017-09-28T01:54:43.156Z,23.88
2017-09-28T01:57:10.630Z,23.90
2017-09-28T01:59:38.235Z,23.85
2017-09-28T02:02:05.850Z,23.86
2017-09-28T02:04:33.670Z,23.87
2017-09-28T02:07:01.091Z,23.87
2017-09-28T02:09:28.500Z,23.86
2017-09-28T02:11:56.452Z,23.87
2017-09-28T02:14:23.861Z,23.89
2017-09-28T02:16:51.277Z,23.88
2017-09-28T02:19:18.730Z,23.87
2017-09-28T02:21:46.145Z,23.87
2017-09-28T02:24:13.546Z,23.87
2017-09-28T02:26:41.393Z,23.84
2017-09-28T02:29:08.807Z,23.84
2017-09-28T02:31:36.309Z,23.84
2017-09-28T02:34:03.776Z,23.85
2017-09-28T02:36:31.191Z,23.85
2017-09-28T02:38:58.607Z,23.85
2017-09-28T02:41:26.443Z,23.85
2017-09-28T02:43:53.894Z,23.83
2017-09-28T02:46:21.297Z,23.83
2017-09-28T02:48:48.758Z,23.85
2017-09-28T02:51:16.166Z,23.84
2017-09-28T02:53:43.723Z,23.85
2017-09-28T02:56:11.491Z,23.84
2017-09-28T02:58:38.912Z,23.85
2017-09-28T03:01:06.315Z,23.84
2017-09-28T03:03:33.784Z,23.82
2017-09-28T03:06:01.377Z,23.82
2017-09-28T03:08:28.823Z,23.83
2017-09-28T03:10:56.913Z,23.84
2017-09-28T03:13:24.318Z,23.82
2017-09-28T03:15:51.725Z,23.83
2017-09-28T03:18:19.180Z,23.82
2017-09-28T03:20:46.683Z,23.81
2017-09-28T03:23:14.147Z,23.82
2017-09-28T03:25:41.587Z,23.83
2017-09-28T03:28:09.078Z,23.83
2017-09-28T03:30:36.483Z,23.81
2017-09-28T03:33:03.954Z,23.82
2017-09-28T03:35:31.370Z,23.81
2017-09-28T03:37:58.818Z,23.82
2017-09-28T03:40:26.838Z,23.81
2017-09-28T03:42:54.249Z,23.79
2017-09-28T03:45:21.742Z,23.82
2017-09-28T03:47:49.187Z,23.81
2017-09-28T03:50:16.601Z,23.80
2017-09-28T03:52:44.022Z,23.83
2017-09-28T03:55:11.465Z,23.82
2017-09-28T03:57:38.881Z,23.81
2017-09-28T04:00:06.321Z,23.80
2017-09-28T04:02:34.151Z,23.81
2017-09-28T04:05:01.581Z,23.80
2017-09-28T04:07:29.070Z,23.81
2017-09-28T04:09:56.531Z,23.82
2017-09-28T04:12:23.945Z,23.82
2017-09-28T04:14:51.850Z,23.83
2017-09-28T04:17:19.291Z,23.83
2017-09-28T04:19:46.709Z,23.85
2017-09-28T04:22:14.146Z,23.88
2017-09-28T04:24:41.980Z,23.89
2017-09-28T04:27:09.407Z,23.89
2017-09-28T04:29:36.826Z,23.87
2017-09-28T04:32:04.280Z,23.89
2017-09-28T04:34:31.710Z,23.92
2017-09-28T04:36:59.134Z,23.92
2017-09-28T04:39:26.600Z,23.87
2017-09-28T04:41:54.028Z,23.88
2017-09-28T04:44:21.443Z,23.88
2017-09-28T04:46:48.898Z,23.90
2017-09-28T04:49:16.297Z,23.91
2017-09-28T04:51:43.830Z,23.95
2017-09-28T04:54:11.453Z,23.95
2017-09-28T04:56:38.872Z,23.93
2017-09-28T04:59:06.288Z,23.93
2017-09-28T05:01:33.743Z,23.90
2017-09-28T05:04:01.171Z,23.93
2017-09-28T05:06:28.604Z,23.91
2017-09-28T05:08:56.408Z,23.89
2017-09-28T05:11:23.814Z,23.93
2017-09-28T05:13:51.244Z,23.95
2017-09-28T05:16:18.709Z,23.96
2017-09-28T05:18:46.130Z,23.96
2017-09-28T05:21:14.171Z,23.97
2017-09-28T05:23:41.637Z,23.98
2017-09-28T05:26:09.662Z,23.98
2017-09-28T05:28:37.080Z,23.99
2017-09-28T05:31:04.525Z,23.98
2017-09-28T05:33:31.944Z,23.98
2017-09-28T05:35:59.436Z,23.98
2017-09-28T05:38:27.238Z,23.97
2017-09-28T05:40:55.312Z,23.98
2017-09-28T05:43:22.740Z,23.98
2017-09-28T05:45:50.231Z,23.94
2017-09-28T05:48:17.652Z,23.93
2017-09-28T05:50:45.112Z,23.96
2017-09-28T05:53:12.614Z,23.97
2017-09-28T05:55:40.026Z,23.95
2017-09-28T05:58:07.510Z,23.95
2017-09-28T06:00:34.968Z,23.96
2017-09-28T06:03:02.395Z,23.95
2017-09-28T06:05:29.846Z,23.90
2017-09-28T06:07:57.293Z,23.89
2017-09-28T06:10:24.699Z,23.86
2017-09-28T06:12:52.121Z,23.85
2017-09-28T06:15:19.581Z,23.85
2017-09-28T06:17:47.135Z,23.83
2017-09-28T06:20:14.566Z,23.85
2017-09-28T06:22:42.004Z,23.83
2017-09-28T06:25:10.060Z,23.84
2017-09-28T06:27:37.474Z,23.85
2017-09-28T06:30:05.734Z,23.85
2017-09-28T06:32:33.144Z,23.84
2017-09-28T06:35:00.569Z,23.84
2017-09-28T06:37:28.334Z,23.84
2017-09-28T06:39:55.756Z,23.82
2017-09-28T06:42:23.170Z,23.83
2017-09-28T06:44:50.607Z,23.83
2017-09-28T06:47:18.017Z,23.81
2017-09-28T06:49:45.457Z,23.82
2017-09-28T06:52:12.902Z,23.82
2017-09-28T06:54:40.311Z,23.84
2017-09-28T06:57:07.737Z,23.82
2017-09-28T06:59:35.193Z,23.83
2017-09-28T07:02:02.609Z,23.84
2017-09-28T07:04:30.028Z,23.84
2017-09-28T07:06:57.467Z,23.81
2017-09-28T07:09:25.002Z,23.82
2017-09-28T07:11:52.415Z,23.82
2017-09-28T07:14:19.927Z,23.82
2017-09-28T07:16:47.363Z,23.81
2017-09-28T07:19:14.776Z,23.80
2017-09-28T07:21:42.261Z,23.83
2017-09-28T07:24:09.679Z,23.84
2017-09-28T07:26:37.146Z,23.84
2017-09-28T07:29:04.674Z,23.82
2017-09-28T07:31:32.080Z,23.82
2017-09-28T07:33:59.506Z,23.82
2017-09-28T07:36:26.958Z,23.84
2017-09-28T07:38:54.465Z,23.83
2017-09-28T07:41:21.876Z,23.81
2017-09-28T07:43:50.373Z,23.81
2017-09-28T07:46:17.788Z,23.81
2017-09-28T07:48:45.210Z,23.80
2017-09-28T07:51:12.644Z,23.80
2017-09-28T07:53:40.087Z,23.81
2017-09-28T07:56:07.507Z,23.83
2017-09-28T07:58:34.950Z,23.81
2017-09-28T08:01:02.401Z,23.79
2017-09-28T08:03:29.825Z,23.81
2017-09-28T08:05:57.381Z,23.82
2017-09-28T08:08:24.791Z,23.84
2017-09-28T08:10:52.233Z,23.84
2017-09-28T08:13:19.663Z,23.81
2017-09-28T08:15:47.140Z,23.82
2017-09-28T08:18:14.550Z,23.82
2017-09-28T08:20:42.030Z,23.83
2017-09-28T08:23:09.446Z,23.83
2017-09-28T08:25:36.891Z,23.81
2017-09-28T08:28:04.344Z,23.82
2017-09-28T08:30:31.766Z,23.83
2017-09-28T08:32:59.186Z,23.83
2017-09-28T08:35:26.957Z,23.84
2017-09-28T08:37:54.411Z,23.84
2017-09-28T08:40:21.816Z,23.83
2017-09-28T08:42:49.271Z,23.83
2017-09-28T08:45:16.687Z,23.83
2017-09-28T08:47:44.139Z,23.82
2017-09-28T08:50:11.793Z,23.83
2017-09-28T08:52:39.223Z,23.83
2017-09-28T08:55:07.554Z,23.84
2017-09-28T08:57:35.012Z,23.84
2017-09-28T09:00:02.623Z,23.84
2017-09-28T09:02:30.038Z,23.83
2017-09-28T09:04:57.491Z,23.83
2017-09-28T09:07:24.927Z,23.84
2017-09-28T09:09:52.344Z,23.83
2017-09-28T09:12:19.852Z,23.83
2017-09-28T09:14:47.511Z,23.82
2017-09-28T09:17:14.925Z,23.82
2017-09-28T09:19:42.930Z,23.83
2017-09-28T09:22:10.347Z,23.85
2017-09-28T09:24:37.751Z,23.83
2017-09-28T09:27:05.214Z,23.85
2017-09-28T09:29:32.808Z,23.85
2017-09-28T09:32:00.225Z,23.85
2017-09-28T09:34:28.071Z,23.85
2017-09-28T09:36:55.529Z,23.86
2017-09-28T09:39:22.943Z,23.85
2017-09-28T09:41:50.751Z,23.86
2017-09-28T09:44:18.295Z,23.86
2017-09-28T09:46:45.701Z,23.85
2017-09-28T09:49:13.634Z,23.87
2017-09-28T09:51:41.069Z,23.87
2017-09-28T09:54:08.553Z,23.85
2017-09-28T09:56:35.988Z,23.85
2017-09-28T09:59:03.407Z,23.87
2017-09-28T10:01:30.819Z,23.84
2017-09-28T10:03:58.272Z,23.85
2017-09-28T10:06:25.703Z,23.86
2017-09-28T10:08:57.511Z,23.88
2017-09-28T10:11:30.368Z,23.88
2017-09-28T10:14:04.938Z,23.90
2017-09-28T10:16:32.856Z,23.90
2017-09-28T10:19:00.290Z,23.92
2017-09-28T10:21:27.722Z,23.93
2017-09-28T10:23:55.179Z,23.91
2017-09-28T10:26:22.753Z,23.91
2017-09-28T10:28:50.186Z,23.89
2017-09-28T10:31:18.014Z,23.89
2017-09-28T10:33:45.423Z,23.91
2017-09-28T10:36:12.830Z,23.93
2017-09-28T10:38:40.389Z,23.91
2017-09-28T10:41:07.816Z,23.92
2017-09-28T10:43:35.230Z,23.92
2017-09-28T10:46:02.993Z,23.92
2017-09-28T10:48:30.643Z,23.93
2017-09-28T10:50:58.056Z,23.92
2017-09-28T10:53:25.516Z,23.93
2017-09-28T10:55:52.981Z,23.91
2017-09-28T10:58:20.463Z,23.89
2017-09-28T11:00:47.934Z,23.89
2017-09-28T11:03:15.347Z,23.93
2017-09-28T11:05:42.772Z,23.93
2017-09-28T11:08:10.572Z,23.95
2017-09-28T11:10:37.986Z,23.93
2017-09-28T11:13:05.427Z,23.92
2017-09-28T11:15:33.358Z,23.95
2017-09-28T11:18:00.786Z,23.95
2017-09-28T11:20:28.208Z,23.96
2017-09-28T11:22:56.026Z,23.95
2017-09-28T11:25:23.583Z,23.95
2017-09-28T11:27:51.002Z,23.97
2017-09-28T11:30:18.533Z,23.97
2017-09-28T11:32:45.942Z,23.97
2017-09-28T11:35:13.366Z,23.96
2017-09-28T11:37:41.374Z,23.96
2017-09-28T11:40:08.803Z,23.95
2017-09-28T11:42:36.234Z,23.95
2017-09-28T11:45:03.700Z,23.95
2017-09-28T11:47:31.113Z,23.96
2017-09-28T11:49:58.535Z,23.97
2017-09-28T11:52:25.968Z,23.97
2017-09-28T11:54:53.391Z,23.99
2017-09-28T11:57:20.809Z,23.98
2017-09-28T11:59:48.610Z,23.99
2017-09-28T12:02:16.082Z,23.99
2017-09-28T12:04:43.492Z,23.97
2017-09-28T12:07:11.285Z,23.97
2017-09-28T12:09:38.709Z,23.97
2017-09-28T12:12:06.111Z,23.97
2017-09-28T12:14:33.561Z,23.98
2017-09-28T12:17:01.095Z,23.97
2017-09-28T12:19:28.546Z,23.97
2017-09-28T12:21:55.997Z,23.97
2017-09-28T12:24:23.411Z,23.99
2017-09-28T12:26:50.838Z,23.98
2017-09-28T12:29:18.695Z,24.01
2017-09-28T12:31:46.099Z,24.02
2017-09-28T12:34:13.515Z,24.03
2017-09-28T12:36:40.972Z,24.04
2017-09-28T12:39:08.379Z,24.01
2017-09-28T12:41:35.803Z,24.03
2017-09-28T12:44:03.640Z,23.99
2017-09-28T12:46:31.051Z,23.98
2017-09-28T12:48:58.556Z,24.00
2017-09-28T12:51:26.048Z,24.00
2017-09-28T12:53:53.446Z,24.03
2017-09-28T12:56:20.874Z,24.02
2017-09-28T12:58:48.320Z,24.02
2017-09-28T13:01:15.734Z,24.01
2017-09-28T13:03:43.153Z,24.00
2017-09-28T13:06:10.945Z,23.99
2017-09-28T13:08:38.364Z,24.01
2017-09-28T13:11:05.840Z,24.03
2017-09-28T13:13:33.273Z,24.04
2017-09-28T13:16:00.722Z,24.05
2017-09-28T13:18:28.243Z,24.01
2017-09-28T13:20:55.695Z,24.00
2017-09-28T13:23:23.103Z,24.00
2017-09-28T13:25:50.527Z,24.01
2017-09-28T13:28:17.995Z,24.02
2017-09-28T13:30:45.410Z,24.00
2017-09-28T13:33:12.823Z,24.03
2017-09-28T13:35:40.277Z,24.01
2017-09-28T13:38:07.691Z,24.03
2017-09-28T13:40:35.107Z,24.04
2017-09-28T13:43:02.683Z,24.05
2017-09-28T13:45:30.243Z,24.04
2017-09-28T13:47:57.647Z,24.07
2017-09-28T13:50:25.474Z,24.07
2017-09-28T13:52:53.043Z,24.09
2017-09-28T13:55:20.472Z,24.11
2017-09-28T13:57:48.052Z,24.11
2017-09-28T14:00:15.488Z,24.07
2017-09-28T14:02:42.899Z,24.11
2017-09-28T14:05:10.532Z,24.09
2017-09-28T14:07:37.993Z,24.10
2017-09-28T14:10:05.855Z,24.11
2017-09-28T14:12:33.314Z,24.10
2017-09-28T14:15:00.735Z,24.09
2017-09-28T14:17:28.158Z,24.10
2017-09-28T14:19:55.707Z,24.12
2017-09-28T14:22:23.123Z,24.11
2017-09-28T14:24:50.547Z,24.12
2017-09-28T14:27:18.107Z,24.09
2017-09-28T14:29:45.530Z,24.09
2017-09-28T14:32:12.948Z,24.10
2017-09-28T14:34:40.385Z,24.13
2017-09-28T14:37:07.797Z,24.15
2017-09-28T14:39:35.232Z,24.15
2017-09-28T14:42:02.660Z,24.15
2017-09-28T14:44:30.092Z,24.16
2017-09-28T14:46:57.548Z,24.17
2017-09-28T14:49:24.990Z,24.15
2017-09-28T14:51:52.396Z,24.16
2017-09-28T14:54:19.816Z,24.16
2017-09-28T14:56:47.701Z,24.17
2017-09-28T14:59:15.148Z,24.15
2017-09-28T15:01:42.565Z,24.14
2017-09-28T15:04:10.126Z,24.16
2017-09-28T15:06:37.838Z,24.17
2017-09-28T15:09:05.436Z,24.16
2017-09-28T15:11:33.507Z,24.16
2017-09-28T15:14:00.952Z,24.18
2017-09-28T15:16:28.486Z,24.18
2017-09-28T15:18:56.440Z,24.18
2017-09-28T15:21:23.918Z,24.16
2017-09-28T15:23:51.388Z,24.15
2017-09-28T15:26:18.857Z,24.16
2017-09-28T15:28:46.490Z,24.14
2017-09-28T15:31:13.999Z,24.16
2017-09-28T15:33:41.603Z,24.17
2017-09-28T15:36:09.013Z,24.15
2017-09-28T15:38:36.446Z,24.15
2017-09-28T15:41:04.466Z,24.15
2017-09-28T15:43:31.944Z,24.14
2017-09-28T15:45:59.359Z,24.15
2017-09-28T15:48:26.799Z,24.15
2017-09-28T15:50:54.275Z,24.14
2017-09-28T15:53:21.884Z,24.12
2017-09-28T15:55:49.352Z,24.06
2017-09-28T15:58:16.795Z,24.07
2017-09-28T16:00:44.269Z,24.10
2017-09-28T16:03:11.904Z,24.10
2017-09-28T16:05:39.314Z,24.11
2017-09-28T16:08:06.750Z,24.15
2017-09-28T16:10:34.230Z,24.14
2017-09-28T16:13:01.658Z,24.15
2017-09-28T16:15:29.131Z,24.15
2017-09-28T16:17:56.583Z,24.14
2017-09-28T16:20:24.092Z,24.16
2017-09-28T16:22:51.529Z,24.16
2017-09-28T16:25:18.975Z,24.15
2017-09-28T16:27:46.386Z,24.15
2017-09-28T16:30:13.795Z,24.12
2017-09-28T16:32:41.683Z,24.11
2017-09-28T16:35:09.149Z,24.10
2017-09-28T16:37:36.580Z,24.09
2017-09-28T16:40:04.098Z,24.08
2017-09-28T16:42:31.547Z,24.08
2017-09-28T16:44:58.956Z,24.08
2017-09-28T16:47:26.548Z,24.08
2017-09-28T16:49:53.968Z,24.09
2017-09-28T16:52:21.456Z,24.09
2017-09-28T16:54:48.900Z,24.09
2017-09-28T16:57:16.319Z,24.07
2017-09-28T16:59:43.820Z,24.04
2017-09-28T17:02:11.902Z,24.07
2017-09-28T17:04:39.379Z,24.06
2017-09-28T17:07:06.863Z,24.07
2017-09-28T17:09:34.757Z,24.10
2017-09-28T17:12:02.186Z,24.10
2017-09-28T17:14:29.602Z,24.06
2017-09-28T17:16:57.072Z,24.04
2017-09-28T17:19:24.558Z,24.04
2017-09-28T17:21:51.980Z,24.05
2017-09-28T17:24:19.839Z,24.08
2017-09-28T17:26:47.270Z,24.09
2017-09-28T17:29:14.744Z,24.08
2017-09-28T17:31:42.623Z,24.10
2017-09-28T17:34:10.140Z,24.09
2017-09-28T17:36:38.259Z,24.11
2017-09-28T17:39:06.094Z,24.12
2017-09-28T17:41:33.509Z,24.10
2017-09-28T17:44:00.973Z,24.09
2017-09-28T17:46:28.708Z,24.10
2017-09-28T17:48:56.119Z,24.10
2017-09-28T17:51:24.367Z,24.11
2017-09-28T17:53:51.807Z,24.11
2017-09-28T17:56:19.222Z,24.09
2017-09-28T17:58:46.646Z,24.10
2017-09-28T18:01:14.089Z,24.12
2017-09-28T18:03:41.581Z,24.10
2017-09-28T18:06:09.021Z,24.10
2017-09-28T18:08:36.557Z,24.07
2017-09-28T18:11:03.976Z,24.07
2017-09-28T18:13:31.515Z,24.08
2017-09-28T18:15:58.997Z,24.10
2017-09-28T18:18:26.426Z,24.10
2017-09-28T18:20:54.812Z,24.08
2017-09-28T18:23:22.678Z,24.09
2017-09-28T18:25:50.336Z,24.11
2017-09-28T18:31:10.543Z,24.11
2017-09-28T18:33:38.792Z,24.09
2017-09-28T20:16:27.195Z,24.10
2017-09-28T20:18:54.608Z,24.08
2017-09-28T20:21:22.049Z,24.07
2017-09-28T20:23:49.514Z,24.10
2017-09-28T20:26:16.959Z,24.12
2017-09-28T20:28:44.386Z,24.13
2017-09-28T20:31:11.997Z,24.14
2017-09-28T20:33:39.432Z,24.15
2017-09-28T20:36:06.858Z,24.15
2017-09-28T20:38:34.332Z,24.16
2017-09-28T20:41:01.833Z,24.16
2017-09-28T20:43:29.251Z,24.16
2017-09-28T20:45:56.735Z,24.16
2017-09-28T20:48:24.939Z,24.17
2017-09-28T20:50:52.373Z,24.16
2017-09-28T20:53:19.838Z,24.16
2017-09-28T20:55:47.261Z,24.17
2017-09-28T20:58:14.671Z,24.17
2017-09-28T21:00:43.113Z,24.08
2017-09-28T21:03:10.539Z,24.09
2017-09-28T21:05:37.950Z,24.12
2017-09-28T21:08:06.196Z,24.12
2017-09-28T21:10:33.610Z,24.11
2017-09-28T21:13:01.088Z,24.11
2017-09-28T21:15:29.175Z,24.10
2017-09-28T21:17:56.644Z,24.09
2017-09-28T21:20:24.073Z,24.07
2017-09-28T21:22:51.514Z,24.05
2017-09-28T21:25:18.931Z,24.05
2017-09-28T21:27:46.348Z,24.02
2017-09-28T21:30:14.235Z,24.00
2017-09-28T21:32:41.644Z,24.01
2017-09-28T21:35:09.063Z,24.02
2017-09-28T21:37:36.502Z,23.99
2017-09-28T21:40:04.007Z,23.99
2017-09-28T21:42:31.421Z,23.98
2017-09-28T21:44:58.937Z,23.99
2017-09-28T21:47:26.354Z,23.99
2017-09-28T21:49:53.778Z,24.01
2017-09-28T21:52:22.587Z,24.01
2017-09-28T21:54:49.996Z,24.01
2017-09-28T21:57:17.407Z,24.01
2017-09-28T21:59:44.855Z,24.01
2017-09-28T22:02:12.282Z,24.00
2017-09-28T22:04:39.824Z,24.00
2017-09-28T22:07:07.281Z,23.99
2017-09-28T22:09:34.694Z,24.00
2017-09-28T22:12:02.211Z,23.99
2017-09-28T22:14:29.869Z,23.98
2017-09-28T22:16:57.271Z,23.98
2017-09-28T22:19:24.687Z,23.97
2017-09-28T22:21:52.203Z,23.97
2017-09-28T22:24:19.616Z,23.95
2017-09-28T22:26:47.039Z,23.96
2017-09-28T22:29:14.509Z,23.97
2017-09-28T22:31:41.936Z,23.97
2017-09-28T22:34:09.344Z,23.95
2017-09-28T22:36:37.194Z,23.93
2017-09-28T22:39:04.627Z,23.93
2017-09-28T22:41:32.044Z,23.95
2017-09-28T22:43:59.590Z,23.94
2017-09-28T22:46:26.995Z,23.94
2017-09-28T22:48:54.528Z,23.95
2017-09-28T22:51:21.983Z,23.94
2017-09-28T22:53:49.400Z,23.92
2017-09-28T22:56:16.807Z,23.92
2017-09-28T22:58:44.362Z,23.93
2017-09-28T23:01:11.779Z,23.89
2017-09-28T23:03:39.219Z,23.90
2017-09-28T23:06:06.742Z,23.89
2017-09-28T23:08:34.168Z,23.89
2017-09-28T23:11:01.698Z,23.90
2017-09-28T23:13:29.187Z,23.89
2017-09-28T23:15:56.653Z,23.87
2017-09-28T23:18:24.072Z,23.89
2017-09-28T23:20:51.848Z,23.87
2017-09-28T23:23:19.266Z,23.87
2017-09-28T23:25:46.676Z,23.88
2017-09-28T23:28:14.114Z,23.87
2017-09-28T23:30:41.543Z,23.87
2017-09-28T23:33:08.947Z,23.88
2017-09-28T23:35:36.564Z,23.87
2017-09-28T23:38:03.988Z,23.85
2017-09-28T23:40:31.400Z,23.87
2017-09-28T23:42:58.953Z,23.87
2017-09-28T23:45:26.378Z,23.87
2017-09-28T23:47:53.789Z,23.87
2017-09-28T23:50:21.608Z,23.86
2017-09-28T23:52:49.022Z,23.87
2017-09-28T23:55:16.430Z,23.85
2017-09-28T23:57:43.920Z,23.86
